ENML/MOL METAR and TAF weather

Enter ICAO airport designator
Station Type Date Time Source
ENML METAR 2018/01/22 19:50 UTC NOAA

ENML 221950Z 04006KT CAVOK M04/M10 Q1006


Station Type Date Time Source
ENML Decoded METAR 2018/01/22 19:50 UTC NOAA

Molde / Aro, Norway (ENML) 62-45N 007-16E 3M
Jan 22, 2018 - 02:50 PM EST / 2018.01.22 1950 UTC
Wind: from the NE (040 degrees) at 7 MPH (6 KT):0
Visibility: greater than 7 mile(s):0
Temperature: 24 F (-4 C)
Windchill: 15 F (-9 C):1
Dew Point: 14 F (-10 C)
Relative Humidity: 62%
Pressure (altimeter): 29.71 in. Hg (1006 hPa)
ob: ENML 221950Z 04006KT CAVOK M04/M10 Q1006
cycle: 20

Station Type Date Time Source
ENML TAF UTC NOAA

Error!


Example: see airport list